createdAt,value
2023-05-02T00:01:05.250Z,6.80
2023-05-02T00:03:35.050Z,6.32
2023-05-02T00:08:29.269Z,7.43
2023-05-02T00:10:58.848Z,6.85
2023-05-02T00:13:25.991Z,6.78
2023-05-02T00:15:53.081Z,7.72
2023-05-02T00:18:20.315Z,7.28
2023-05-02T00:20:47.405Z,6.90
2023-05-02T00:23:14.655Z,7.13
2023-05-02T00:25:45.794Z,7.25
2023-05-02T00:28:15.166Z,6.80
2023-05-02T00:30:48.453Z,6.88
2023-05-02T00:33:17.874Z,8.02
2023-05-02T00:35:44.962Z,6.50
2023-05-02T00:38:12.112Z,7.20
2023-05-02T00:40:46.086Z,6.45
2023-05-02T00:43:15.996Z,6.20
2023-05-02T00:45:43.711Z,6.97
2023-05-02T00:48:11.387Z,7.18
2023-05-02T00:50:42.034Z,6.20
2023-05-02T00:53:09.765Z,8.77
2023-05-02T00:55:37.583Z,8.00
2023-05-02T00:58:09.546Z,7.57
2023-05-02T01:00:55.599Z,6.63
2023-05-02T01:03:30.757Z,8.30
2023-05-02T01:06:04.172Z,7.25
2023-05-02T01:08:36.110Z,7.43
2023-05-02T01:11:15.045Z,7.45
2023-05-02T01:13:46.044Z,6.57
2023-05-02T01:16:13.960Z,8.02
2023-05-02T01:18:44.852Z,7.03
2023-05-02T01:21:12.902Z,8.32
2023-05-02T01:23:40.018Z,7.05
2023-05-02T01:26:13.783Z,10.07
2023-05-02T01:28:59.331Z,9.00
2023-05-02T01:31:27.811Z,11.25
2023-05-02T01:33:56.449Z,13.68
2023-05-02T01:36:27.006Z,16.10
2023-05-02T01:38:55.643Z,20.98
2023-05-02T01:41:23.332Z,19.67
2023-05-02T01:43:50.467Z,19.65
2023-05-02T01:46:20.767Z,18.20
2023-05-02T01:48:48.756Z,21.02
2023-05-02T01:51:18.679Z,23.70
2023-05-02T01:56:13.259Z,20.60
2023-05-02T01:58:40.696Z,21.58
2023-05-02T02:01:10.368Z,24.92
2023-05-02T02:03:37.688Z,25.17
2023-05-02T02:06:08.137Z,23.98
2023-05-02T02:08:35.312Z,23.40
2023-05-02T02:11:10.063Z,27.10
2023-05-02T02:13:39.885Z,33.33
2023-05-02T02:18:37.346Z,30.45
2023-05-02T02:21:08.379Z,23.88
2023-05-02T02:23:37.248Z,33.05
2023-05-02T02:26:04.958Z,29.83
2023-05-02T02:28:34.953Z,28.65
2023-05-02T02:31:02.262Z,29.63
2023-05-02T02:33:31.241Z,38.88
2023-05-02T02:36:24.702Z,33.30
2023-05-02T02:39:00.872Z,39.67
2023-05-02T02:41:40.591Z,37.08
2023-05-02T02:44:19.807Z,36.05
2023-05-02T02:46:50.054Z,31.65
2023-05-02T02:49:32.683Z,35.28
2023-05-02T02:52:14.360Z,29.33
2023-05-02T02:54:41.447Z,36.03
2023-05-02T02:57:16.070Z,32.55
2023-05-02T02:59:47.199Z,32.25
2023-05-02T03:02:18.058Z,32.30
2023-05-02T03:04:46.282Z,33.97
2023-05-02T03:07:13.562Z,29.02
2023-05-02T03:09:48.460Z,31.13
2023-05-02T03:12:18.089Z,30.27
2023-05-02T03:14:45.312Z,28.15
2023-05-02T03:17:12.426Z,28.67
2023-05-02T03:19:42.075Z,25.73
2023-05-02T03:22:09.242Z,26.30
2023-05-02T03:24:36.343Z,31.20
2023-05-02T03:27:03.465Z,27.67
2023-05-02T03:29:32.842Z,29.17
2023-05-02T03:31:59.999Z,26.90
2023-05-02T03:34:27.128Z,30.20
2023-05-02T03:36:54.296Z,31.98
2023-05-02T03:39:21.385Z,29.42
2023-05-02T03:41:48.534Z,28.13
2023-05-02T03:44:15.807Z,27.02
2023-05-02T03:46:43.167Z,30.88
2023-05-02T03:49:10.346Z,28.50
2023-05-02T03:51:37.447Z,26.83
2023-05-02T03:54:04.814Z,31.10
2023-05-02T03:56:36.540Z,31.15
2023-05-02T03:59:03.995Z,28.85
2023-05-02T04:01:31.603Z,29.52
2023-05-02T04:04:01.002Z,31.70
2023-05-02T04:06:32.037Z,27.55
2023-05-02T04:09:01.830Z,25.65
2023-05-02T04:11:28.942Z,25.92
2023-05-02T04:13:56.000Z,24.75
2023-05-02T04:16:23.243Z,27.38
2023-05-02T04:18:50.707Z,24.90
2023-05-02T04:21:17.799Z,25.80
2023-05-02T04:23:44.860Z,25.80
2023-05-02T04:26:11.930Z,28.45
2023-05-02T04:28:41.534Z,25.67
2023-05-02T04:31:08.744Z,33.42
2023-05-02T04:33:36.320Z,30.40
2023-05-02T04:36:03.735Z,29.60
2023-05-02T04:38:33.458Z,31.83
2023-05-02T04:41:00.547Z,35.50
2023-05-02T04:43:36.096Z,30.02
2023-05-02T04:46:03.315Z,34.95
2023-05-02T04:48:30.632Z,32.28
2023-05-02T04:50:57.729Z,31.95
2023-05-02T04:53:27.079Z,31.88
2023-05-02T04:55:54.215Z,31.73
2023-05-02T04:58:21.319Z,30.08
2023-05-02T05:00:48.449Z,25.92
2023-05-02T05:03:15.671Z,26.33
2023-05-02T05:05:42.863Z,25.40
2023-05-02T05:08:12.587Z,30.38
2023-05-02T05:10:42.533Z,26.23
2023-05-02T05:15:39.212Z,28.25
2023-05-02T05:18:07.064Z,26.88
2023-05-02T05:20:36.467Z,24.10
2023-05-02T05:23:03.567Z,25.83
2023-05-02T05:25:30.648Z,28.80
2023-05-02T05:27:57.724Z,32.95
2023-05-02T05:30:27.122Z,28.80
2023-05-02T05:32:54.294Z,28.63
2023-05-02T05:35:21.405Z,26.25
2023-05-02T05:37:48.508Z,31.95
2023-05-02T05:40:16.799Z,25.10
2023-05-02T05:42:43.912Z,30.10
2023-05-02T05:45:12.320Z,33.13
2023-05-02T05:47:39.524Z,29.20
2023-05-02T05:50:07.033Z,34.60
2023-05-02T05:52:34.152Z,30.80
2023-05-02T05:55:01.367Z,34.35
2023-05-02T05:57:28.618Z,31.92
2023-05-02T05:59:55.922Z,32.42
2023-05-02T06:02:23.099Z,31.55
2023-05-02T06:04:50.472Z,32.63
2023-05-02T06:07:17.553Z,29.13
2023-05-02T06:09:44.679Z,33.35
2023-05-02T06:12:11.815Z,32.28
2023-05-02T06:14:38.912Z,32.80
2023-05-02T06:17:08.264Z,34.90
2023-05-02T06:19:35.884Z,32.05
2023-05-02T06:22:05.675Z,31.15
2023-05-02T06:27:02.416Z,25.75
2023-05-02T06:29:29.791Z,29.17
2023-05-02T06:31:57.357Z,27.00
2023-05-02T06:34:24.592Z,28.95
2023-05-02T06:36:57.568Z,31.95
2023-05-02T06:39:27.161Z,28.88
2023-05-02T06:41:58.228Z,24.15
2023-05-02T06:44:27.821Z,27.10
2023-05-02T06:46:55.820Z,24.63
2023-05-02T06:49:23.393Z,28.45
2023-05-02T06:51:52.782Z,26.00
2023-05-02T06:54:21.751Z,27.77
2023-05-02T06:56:48.945Z,28.03
2023-05-02T06:59:19.135Z,22.48
2023-05-02T07:01:46.356Z,24.85
2023-05-02T07:04:13.542Z,22.25
2023-05-02T07:06:40.834Z,20.73
2023-05-02T07:09:10.254Z,22.92
2023-05-02T07:11:37.349Z,22.90
2023-05-02T07:14:04.455Z,23.30
2023-05-02T07:16:31.633Z,20.58
2023-05-02T07:18:59.391Z,21.73
2023-05-02T07:21:28.977Z,21.52
2023-05-02T07:23:57.677Z,19.70
2023-05-02T07:26:25.350Z,20.88
2023-05-02T07:28:54.630Z,22.35
2023-05-02T07:31:23.984Z,23.92
2023-05-02T07:33:51.041Z,20.65
2023-05-02T07:36:18.194Z,19.67
2023-05-02T07:38:45.382Z,18.92
2023-05-02T07:41:16.637Z,14.93
2023-05-02T07:43:43.794Z,17.25
2023-05-02T07:46:13.653Z,16.88
2023-05-02T07:51:10.731Z,16.13
2023-05-02T07:53:40.362Z,16.13
2023-05-02T07:56:10.016Z,20.13
2023-05-02T07:58:37.329Z,20.25
2023-05-02T08:01:04.660Z,17.65
2023-05-02T08:03:32.234Z,17.75
2023-05-02T08:05:59.488Z,17.85
2023-05-02T08:08:26.716Z,18.23
2023-05-02T08:10:53.842Z,18.35
2023-05-02T08:13:20.972Z,16.65
2023-05-02T08:15:50.733Z,13.70
2023-05-02T08:20:48.237Z,16.00
2023-05-02T08:23:17.565Z,14.23
2023-05-02T08:25:47.192Z,15.05
2023-05-02T08:28:14.292Z,12.90
2023-05-02T08:30:41.689Z,10.63
2023-05-02T08:33:08.868Z,13.70
2023-05-02T08:35:36.442Z,13.80
2023-05-02T08:38:03.535Z,13.77
2023-05-02T08:40:40.949Z,13.95
2023-05-02T08:43:11.626Z,12.50
2023-05-02T08:45:47.406Z,13.45
2023-05-02T08:48:16.795Z,13.38
2023-05-02T08:50:46.622Z,15.15
2023-05-02T08:53:14.487Z,17.58
2023-05-02T08:55:42.577Z,15.93
2023-05-02T08:58:10.837Z,18.95
2023-05-02T09:00:40.077Z,18.00
2023-05-02T09:03:13.407Z,18.70
2023-05-02T09:05:41.340Z,18.00
2023-05-02T09:08:08.730Z,18.80
2023-05-02T09:10:39.106Z,17.38
2023-05-02T09:13:24.836Z,15.50
2023-05-02T09:16:25.417Z,18.67
2023-05-02T09:18:53.504Z,18.02
2023-05-02T09:21:21.408Z,17.83
2023-05-02T09:23:50.062Z,17.98
2023-05-02T09:26:17.207Z,17.45
2023-05-02T09:28:44.340Z,21.70
2023-05-02T09:31:12.375Z,16.95
2023-05-02T09:33:40.095Z,19.00
2023-05-02T09:36:07.644Z,15.88
2023-05-02T09:38:34.814Z,15.68
2023-05-02T09:41:04.555Z,21.48
2023-05-02T09:43:32.648Z,15.95
2023-05-02T09:46:00.881Z,17.30
2023-05-02T09:48:31.158Z,19.00
2023-05-02T09:50:58.578Z,15.40
2023-05-02T09:53:27.084Z,17.90
2023-05-02T09:56:01.352Z,17.63
2023-05-02T09:58:28.813Z,17.50
2023-05-02T10:00:56.070Z,16.58
2023-05-02T10:03:26.491Z,14.35
2023-05-02T10:05:56.580Z,15.45
2023-05-02T10:08:28.652Z,12.23
2023-05-02T10:10:56.684Z,13.23
2023-05-02T10:13:27.069Z,9.90
2023-05-02T10:16:01.606Z,10.05
2023-05-02T10:18:34.627Z,9.05
2023-05-02T10:21:06.207Z,8.30
2023-05-02T10:23:33.749Z,7.70
2023-05-02T10:26:00.988Z,8.25
2023-05-02T10:28:28.441Z,9.13
2023-05-02T10:30:55.710Z,10.98
2023-05-02T10:33:23.368Z,10.38
2023-05-02T10:35:50.819Z,9.32
2023-05-02T10:38:21.697Z,7.00
2023-05-02T10:40:55.853Z,7.82
2023-05-02T10:43:27.637Z,15.40
2023-05-02T10:45:55.152Z,9.95
2023-05-02T10:48:27.679Z,8.43
2023-05-02T10:50:56.003Z,12.48
2023-05-02T10:53:25.592Z,12.10
2023-05-02T10:56:11.474Z,11.10
2023-05-02T10:58:38.699Z,13.95
2023-05-02T11:01:24.738Z,9.50
2023-05-02T11:04:04.407Z,12.93
2023-05-02T11:06:38.821Z,11.00
2023-05-02T11:09:20.340Z,13.07
2023-05-02T11:11:49.455Z,14.55
2023-05-02T11:14:25.876Z,14.77
2023-05-02T11:16:59.554Z,11.35
2023-05-02T11:19:31.456Z,8.27
2023-05-02T11:22:19.107Z,13.52
2023-05-02T11:24:50.145Z,10.05
2023-05-02T11:27:33.533Z,10.98
2023-05-02T11:30:10.221Z,14.68
2023-05-02T11:32:50.004Z,12.18
2023-05-02T11:35:23.359Z,9.00
2023-05-02T11:37:57.272Z,13.35
2023-05-02T11:40:24.756Z,11.90
2023-05-02T11:42:51.850Z,11.27
2023-05-02T11:45:19.083Z,9.68
2023-05-02T11:47:48.997Z,11.93
2023-05-02T11:50:19.258Z,8.88
2023-05-02T11:52:46.493Z,8.95
2023-05-02T11:55:14.907Z,9.27
2023-05-02T11:57:42.894Z,9.77
2023-05-02T12:00:15.752Z,11.70
2023-05-02T12:02:43.727Z,10.23
2023-05-02T12:05:12.302Z,10.95
2023-05-02T12:07:42.218Z,11.00
2023-05-02T12:12:36.641Z,10.30
2023-05-02T12:15:10.983Z,7.50
2023-05-02T12:17:39.402Z,7.10
2023-05-02T12:20:07.722Z,10.48
2023-05-02T12:22:39.362Z,9.85
2023-05-02T12:25:06.807Z,10.02
2023-05-02T12:27:34.641Z,8.27
2023-05-02T12:30:02.032Z,13.02
2023-05-02T12:32:30.872Z,8.55
2023-05-02T12:34:58.394Z,8.05
2023-05-02T12:37:28.668Z,10.07
2023-05-02T12:39:56.857Z,10.43
2023-05-02T12:42:25.427Z,10.07
2023-05-02T12:44:53.289Z,11.13
2023-05-02T12:47:22.958Z,10.43
2023-05-02T12:52:21.504Z,10.63
2023-05-02T12:54:50.457Z,12.95
2023-05-02T12:57:28.779Z,8.50
2023-05-02T12:59:57.708Z,9.88
2023-05-02T13:02:24.643Z,11.23
2023-05-02T13:04:51.511Z,10.00
2023-05-02T13:07:18.199Z,8.25
2023-05-02T13:09:44.934Z,14.55
2023-05-02T13:12:11.710Z,11.35
2023-05-02T13:14:39.168Z,10.00
2023-05-02T13:17:08.557Z,10.48
2023-05-02T13:19:35.468Z,9.85
2023-05-02T13:22:02.267Z,9.95
2023-05-02T13:24:29.016Z,10.32
2023-05-02T13:26:56.086Z,8.50
2023-05-02T13:29:25.258Z,9.20
2023-05-02T13:31:51.919Z,6.93
2023-05-02T13:34:18.612Z,6.05
2023-05-02T13:36:46.388Z,8.20
2023-05-02T13:39:16.554Z,10.23
2023-05-02T13:41:43.891Z,9.82
2023-05-02T13:44:11.017Z,6.57
2023-05-02T13:46:38.427Z,6.57
2023-05-02T13:49:06.064Z,8.95
2023-05-02T13:51:32.884Z,7.05
2023-05-02T13:54:00.289Z,9.02
2023-05-02T13:56:29.664Z,6.07
2023-05-02T13:58:56.833Z,8.02
2023-05-02T14:01:23.951Z,6.85
2023-05-02T14:03:53.483Z,9.48
2023-05-02T14:06:20.443Z,8.40
2023-05-02T14:08:51.330Z,7.55
2023-05-02T14:11:18.103Z,10.32
2023-05-02T14:13:44.854Z,5.38
2023-05-02T14:16:11.626Z,6.63
2023-05-02T14:18:41.746Z,8.13
2023-05-02T14:21:08.529Z,8.13
2023-05-02T14:23:35.365Z,7.18
2023-05-02T14:26:02.603Z,6.57
2023-05-02T14:28:29.342Z,6.20
2023-05-02T14:30:56.057Z,8.05
2023-05-02T14:33:22.753Z,6.03
2023-05-02T14:35:51.664Z,13.73
2023-05-02T14:38:18.393Z,8.70
2023-05-02T14:40:49.817Z,6.35
2023-05-02T14:43:18.748Z,8.35
2023-05-02T14:45:48.054Z,8.20
2023-05-02T14:48:17.534Z,11.25
2023-05-02T14:50:44.543Z,7.75
2023-05-02T14:53:11.981Z,6.88
2023-05-02T14:55:39.809Z,9.48
2023-05-02T14:58:10.350Z,16.92
2023-05-02T15:00:38.269Z,8.80
2023-05-02T15:03:09.816Z,6.97
2023-05-02T15:05:37.103Z,11.93
2023-05-02T15:08:03.922Z,8.13
2023-05-02T15:10:30.810Z,8.52
2023-05-02T15:12:57.500Z,7.72
2023-05-02T15:15:25.278Z,7.10
2023-05-02T15:17:52.913Z,7.05
2023-05-02T15:20:22.429Z,7.82
2023-05-02T15:22:49.437Z,6.72
2023-05-02T15:25:16.366Z,5.28
2023-05-02T15:27:43.052Z,9.23
2023-05-02T15:30:12.426Z,4.90
2023-05-02T15:32:39.123Z,8.15
2023-05-02T15:35:08.467Z,10.10
2023-05-02T15:37:38.046Z,25.75
2023-05-02T15:40:06.586Z,7.05
2023-05-02T15:42:36.894Z,10.27
2023-05-02T15:45:04.318Z,10.57
2023-05-02T15:47:33.743Z,7.78
2023-05-02T15:50:03.222Z,6.85
2023-05-02T15:52:32.669Z,7.57
2023-05-02T15:55:01.560Z,5.95
2023-05-02T15:57:28.494Z,10.17
2023-05-02T15:59:55.807Z,9.07
2023-05-02T16:02:22.516Z,10.20
2023-05-02T16:04:49.257Z,5.00
2023-05-02T16:07:18.444Z,5.00
2023-05-02T16:09:47.266Z,7.22
2023-05-02T16:12:16.167Z,4.03
2023-05-02T16:14:45.098Z,7.73
2023-05-02T16:17:11.744Z,4.10
2023-05-02T16:19:38.605Z,8.27
2023-05-02T16:22:06.391Z,4.80
2023-05-02T16:24:33.593Z,4.88
2023-05-02T16:27:01.777Z,6.55
2023-05-02T16:29:28.883Z,5.20
2023-05-02T16:31:56.327Z,4.45
2023-05-02T16:34:23.449Z,8.38
2023-05-02T16:36:51.532Z,7.18
2023-05-02T16:39:18.749Z,6.72
2023-05-02T16:41:49.281Z,7.07
2023-05-02T16:44:16.474Z,5.72
2023-05-02T16:46:43.961Z,8.18
2023-05-02T16:49:11.144Z,5.22
2023-05-02T16:51:38.278Z,5.95
2023-05-02T16:54:08.060Z,7.50
2023-05-02T16:59:02.740Z,6.63
2023-05-02T17:01:30.347Z,5.80
2023-05-02T17:03:57.537Z,5.63
2023-05-02T17:06:24.687Z,5.78
2023-05-02T17:08:51.892Z,7.88
2023-05-02T17:11:18.988Z,4.93
2023-05-02T17:13:47.276Z,5.65
2023-05-02T17:16:14.692Z,5.32
2023-05-02T17:18:44.138Z,6.95
2023-05-02T17:21:13.750Z,3.90
2023-05-02T17:23:40.965Z,5.95
2023-05-02T17:26:14.354Z,9.82
2023-05-02T17:28:43.371Z,4.82
2023-05-02T17:31:10.904Z,4.00
2023-05-02T17:33:38.049Z,5.32
2023-05-02T17:36:05.471Z,6.40
2023-05-02T17:38:32.922Z,7.65
2023-05-02T17:41:02.731Z,5.10
2023-05-02T17:45:58.838Z,5.30
2023-05-02T17:48:25.742Z,6.20
2023-05-02T17:50:55.947Z,5.82
2023-05-02T17:53:22.649Z,4.65
2023-05-02T17:55:49.399Z,3.72
2023-05-02T17:58:16.162Z,4.30
2023-05-02T18:00:45.544Z,5.88
2023-05-02T18:03:12.476Z,4.38
2023-05-02T18:05:40.025Z,5.65
2023-05-02T18:08:09.972Z,5.53
2023-05-02T18:10:41.858Z,5.47
2023-05-02T18:13:08.880Z,4.28
2023-05-02T18:15:35.952Z,5.55
2023-05-02T18:18:04.920Z,4.80
2023-05-02T18:20:37.573Z,3.53
2023-05-02T18:23:07.008Z,4.45
2023-05-02T18:25:36.891Z,4.28
2023-05-02T18:30:42.782Z,4.45
2023-05-02T18:33:09.941Z,4.03
2023-05-02T18:35:36.704Z,5.25
2023-05-02T18:38:06.846Z,4.93
2023-05-02T18:40:35.694Z,4.63
2023-05-02T18:43:05.287Z,6.22
2023-05-02T18:45:35.771Z,6.13
2023-05-02T18:48:03.404Z,4.35
2023-05-02T18:50:30.220Z,6.05
2023-05-02T18:52:57.485Z,2.90
2023-05-02T18:55:25.437Z,4.15
2023-05-02T18:57:52.407Z,3.88
2023-05-02T19:00:20.390Z,5.43
2023-05-02T19:02:47.703Z,4.32
2023-05-02T19:05:17.134Z,5.68
2023-05-02T19:07:44.754Z,3.10
2023-05-02T19:10:16.218Z,4.90
2023-05-02T19:12:43.955Z,4.97
2023-05-02T19:15:11.242Z,5.75
2023-05-02T19:17:40.313Z,17.83
2023-05-02T19:20:07.867Z,4.10
2023-05-02T19:22:37.157Z,6.38
2023-05-02T19:25:04.540Z,3.50
2023-05-02T19:27:31.441Z,5.03
2023-05-02T19:29:58.704Z,6.82
2023-05-02T19:32:27.689Z,6.70
2023-05-02T19:34:56.771Z,7.13
2023-05-02T19:37:26.472Z,9.27
2023-05-02T19:39:53.658Z,5.15
2023-05-02T19:42:20.773Z,5.03
2023-05-02T19:44:48.217Z,4.72
2023-05-02T19:47:15.268Z,3.47
2023-05-02T19:49:44.670Z,4.05
2023-05-02T19:52:11.978Z,5.80
2023-05-02T19:54:39.120Z,5.45
2023-05-02T19:57:06.417Z,5.15
2023-05-02T19:59:33.701Z,4.13
2023-05-02T20:02:00.805Z,8.63
2023-05-02T20:04:27.977Z,7.38
2023-05-02T20:06:55.197Z,5.90
2023-05-02T20:09:22.348Z,7.80
2023-05-02T20:11:49.515Z,6.55
2023-05-02T20:14:18.740Z,7.63
2023-05-02T20:16:47.369Z,11.32
2023-05-02T20:19:22.314Z,8.30
2023-05-02T20:22:21.289Z,5.10
2023-05-02T20:24:50.966Z,8.15
2023-05-02T20:27:18.130Z,8.85
2023-05-02T20:29:45.289Z,10.00
2023-05-02T20:32:12.482Z,10.00
2023-05-02T20:34:41.837Z,7.35
2023-05-02T20:37:10.220Z,6.72
2023-05-02T20:39:39.655Z,8.10
2023-05-02T20:42:06.733Z,7.50
2023-05-02T20:44:36.572Z,7.93
2023-05-02T20:49:34.288Z,9.48
2023-05-02T20:52:05.730Z,7.65
2023-05-02T20:54:35.372Z,6.35
2023-05-02T20:57:03.576Z,8.13
2023-05-02T20:59:32.949Z,5.53
2023-05-02T21:02:00.238Z,8.88
2023-05-02T21:04:27.479Z,5.45
2023-05-02T21:06:56.732Z,10.52
2023-05-02T21:09:24.286Z,7.60
2023-05-02T21:11:51.568Z,11.05
2023-05-02T21:14:18.707Z,6.82
2023-05-02T21:16:45.961Z,9.93
2023-05-02T21:19:15.666Z,6.40
2023-05-02T21:21:42.848Z,6.38
2023-05-02T21:24:10.002Z,7.95
2023-05-02T21:26:37.200Z,7.50
2023-05-02T21:29:04.295Z,6.03
2023-05-02T21:31:32.975Z,8.68
2023-05-02T21:34:03.247Z,5.93
2023-05-02T21:36:30.313Z,6.45
2023-05-02T21:38:57.460Z,7.10
2023-05-02T21:41:24.565Z,6.38
2023-05-02T21:43:54.094Z,6.22
2023-05-02T21:46:26.013Z,6.97
2023-05-02T21:48:52.727Z,9.52
2023-05-02T21:51:23.895Z,10.93
2023-05-02T21:53:52.281Z,8.65
2023-05-02T21:56:18.949Z,5.50
2023-05-02T21:58:47.780Z,6.57
2023-05-02T22:01:14.612Z,4.97
2023-05-02T22:03:46.357Z,10.80
2023-05-02T22:06:15.445Z,7.93
2023-05-02T22:08:42.192Z,8.07
2023-05-02T22:11:09.500Z,5.95
2023-05-02T22:13:36.885Z,8.93
2023-05-02T22:16:06.939Z,10.85
2023-05-02T22:18:36.140Z,9.93
2023-05-02T22:21:03.653Z,8.63
2023-05-02T22:23:31.132Z,8.00
2023-05-02T22:25:58.515Z,5.10
2023-05-02T22:28:25.219Z,5.80
2023-05-02T22:30:54.728Z,6.47
2023-05-02T22:33:26.080Z,5.20
2023-05-02T22:35:52.733Z,7.97
2023-05-02T22:38:20.055Z,5.45
2023-05-02T22:40:46.723Z,7.40
2023-05-02T22:43:13.388Z,10.25
2023-05-02T22:45:42.682Z,9.70
2023-05-02T22:48:09.482Z,9.98
2023-05-02T22:50:36.217Z,8.98
2023-05-02T22:53:03.922Z,7.68
2023-05-02T22:55:30.981Z,5.95
2023-05-02T22:58:02.318Z,7.18
2023-05-02T23:00:29.042Z,6.05
2023-05-02T23:02:59.061Z,8.02
2023-05-02T23:05:25.810Z,8.30
2023-05-02T23:07:55.388Z,11.23
2023-05-02T23:10:22.127Z,5.05
2023-05-02T23:12:48.846Z,6.60
2023-05-02T23:15:17.685Z,8.15
2023-05-02T23:17:44.777Z,7.88
2023-05-02T23:20:12.033Z,7.18
2023-05-02T23:22:44.370Z,6.53
2023-05-02T23:25:14.439Z,9.38
2023-05-02T23:27:41.505Z,10.35
2023-05-02T23:30:11.253Z,7.45
2023-05-02T23:32:39.343Z,8.88
2023-05-02T23:35:06.726Z,7.78
2023-05-02T23:37:33.862Z,9.00
2023-05-02T23:40:00.975Z,6.40
2023-05-02T23:42:29.714Z,8.13
2023-05-02T23:44:57.676Z,6.78
2023-05-02T23:47:28.679Z,7.72
2023-05-02T23:49:55.411Z,5.45
2023-05-02T23:52:24.595Z,7.18
2023-05-02T23:54:53.884Z,7.27
2023-05-02T23:57:23.054Z,6.82
2023-05-02T23:59:49.859Z,7.90
